createdAt,value
2018-04-04T00:00:34.292Z,15.00
2018-04-04T00:03:03.192Z,14.80
2018-04-04T00:05:31.363Z,15.10
2018-04-04T00:07:59.503Z,14.70
2018-04-04T00:10:27.632Z,14.60
2018-04-04T00:12:55.791Z,14.70
2018-04-04T00:15:23.947Z,14.80
2018-04-04T00:17:52.837Z,14.60
2018-04-04T00:20:21.724Z,14.90
2018-04-04T00:22:50.644Z,15.10
2018-04-04T00:25:18.768Z,15.30
2018-04-04T00:27:46.888Z,15.50
2018-04-04T00:30:15.028Z,15.60
2018-04-04T00:32:43.923Z,15.70
2018-04-04T00:35:12.926Z,15.20
2018-04-04T00:37:41.816Z,15.10
2018-04-04T00:40:09.955Z,15.30
2018-04-04T00:42:38.112Z,15.00
2018-04-04T00:45:06.236Z,15.00
2018-04-04T00:47:34.365Z,14.90
2018-04-04T00:50:02.505Z,15.00
2018-04-04T00:52:30.627Z,14.90
2018-04-04T00:54:59.545Z,15.10
2018-04-04T00:57:27.668Z,15.50
2018-04-04T00:59:55.807Z,15.70
2018-04-04T01:02:23.998Z,15.80
2018-04-04T01:04:52.090Z,15.60
2018-04-04T01:07:20.212Z,15.80
2018-04-04T01:09:48.361Z,15.70
2018-04-04T01:12:17.252Z,16.00
2018-04-04T01:14:46.145Z,15.80
2018-04-04T01:17:14.306Z,15.60
2018-04-04T01:19:43.195Z,15.80
2018-04-04T01:22:12.090Z,15.80
2018-04-04T01:24:41.018Z,15.40
2018-04-04T01:27:09.148Z,15.40
2018-04-04T01:29:38.040Z,15.40
2018-04-04T01:32:06.977Z,15.30
2018-04-04T01:34:35.100Z,15.60
2018-04-04T01:37:04.018Z,15.80
2018-04-04T01:39:32.156Z,15.60
2018-04-04T01:42:01.060Z,15.60
2018-04-04T01:44:29.214Z,15.60
2018-04-04T01:46:58.111Z,15.60
2018-04-04T01:49:27.004Z,15.50
2018-04-04T01:51:55.899Z,15.40
2018-04-04T01:54:24.812Z,15.00
2018-04-04T01:56:52.947Z,15.00
2018-04-04T01:59:21.836Z,14.90
2018-04-04T02:01:50.739Z,14.90
2018-04-04T02:04:19.648Z,14.90
2018-04-04T02:06:47.812Z,14.70
2018-04-04T02:09:15.936Z,14.50
2018-04-04T02:11:44.079Z,14.50
2018-04-04T02:14:12.208Z,14.20
2018-04-04T02:16:41.099Z,14.20
2018-04-04T02:19:10.020Z,14.10
2018-04-04T02:21:38.143Z,14.00
2018-04-04T02:24:06.524Z,14.00
2018-04-04T02:26:35.451Z,13.50
2018-04-04T02:29:03.584Z,13.10
2018-04-04T02:31:31.745Z,13.30
2018-04-04T02:33:59.891Z,13.30
2018-04-04T02:36:28.020Z,13.00
2018-04-04T02:38:56.920Z,13.00
2018-04-04T02:41:25.823Z,13.20
2018-04-04T02:43:53.982Z,13.10
2018-04-04T02:46:22.116Z,12.90
2018-04-04T02:48:50.230Z,12.90
2018-04-04T02:51:18.375Z,12.80
2018-04-04T02:53:46.499Z,12.70
2018-04-04T02:56:14.620Z,13.10
2018-04-04T02:58:42.772Z,13.10
2018-04-04T03:01:10.895Z,13.20
2018-04-04T03:03:39.024Z,13.40
2018-04-04T03:06:07.161Z,13.30
2018-04-04T03:08:35.291Z,13.30
2018-04-04T03:11:04.196Z,13.50
2018-04-04T03:13:32.355Z,13.10
2018-04-04T03:16:01.244Z,13.40
2018-04-04T03:18:30.137Z,13.20
2018-04-04T03:20:58.437Z,12.60
2018-04-04T03:23:26.559Z,12.80
2018-04-04T03:25:54.692Z,12.80
2018-04-04T03:28:22.835Z,12.70
2018-04-04T03:30:50.966Z,13.10
2018-04-04T03:33:19.108Z,13.00
2018-04-04T03:35:47.261Z,12.40
2018-04-04T03:38:15.484Z,12.50
2018-04-04T03:40:43.613Z,12.40
2018-04-04T03:43:11.772Z,12.50
2018-04-04T03:45:39.897Z,12.70
2018-04-04T03:48:08.021Z,12.40
2018-04-04T03:50:36.156Z,12.30
2018-04-04T03:53:04.320Z,12.20
2018-04-04T03:55:32.443Z,12.00
2018-04-04T03:58:00.571Z,12.00
2018-04-04T04:00:28.731Z,11.80
2018-04-04T04:02:56.880Z,11.90
2018-04-04T04:05:25.002Z,12.00
2018-04-04T04:07:53.919Z,12.10
2018-04-04T04:10:22.043Z,12.10
2018-04-04T04:12:50.172Z,12.10
2018-04-04T04:15:18.318Z,11.70
2018-04-04T04:17:47.204Z,11.60
2018-04-04T04:20:16.095Z,11.60
2018-04-04T04:22:45.003Z,11.80
2018-04-04T04:25:13.122Z,11.70
2018-04-04T04:27:41.277Z,12.00
2018-04-04T04:30:09.417Z,12.00
2018-04-04T04:32:37.551Z,11.70
2018-04-04T04:35:05.691Z,11.40
2018-04-04T04:37:33.877Z,11.60
2018-04-04T04:40:02.024Z,11.60
2018-04-04T04:42:30.159Z,11.40
2018-04-04T04:44:59.065Z,11.90
2018-04-04T04:47:27.222Z,11.70
2018-04-04T04:49:56.113Z,11.90
2018-04-04T04:52:25.013Z,12.00
2018-04-04T04:54:53.935Z,12.00
2018-04-04T04:57:22.079Z,12.10
2018-04-04T04:59:50.205Z,12.20
2018-04-04T05:02:18.371Z,12.30
2018-04-04T05:04:46.496Z,11.80
2018-04-04T05:07:14.647Z,12.00
2018-04-04T05:09:42.779Z,12.20
2018-04-04T05:12:10.936Z,12.60
2018-04-04T05:14:39.095Z,12.70
2018-04-04T05:17:07.866Z,12.60
2018-04-04T05:19:37.658Z,12.70
2018-04-04T05:22:06.584Z,12.30
2018-04-04T05:24:34.716Z,12.90
2018-04-04T05:27:02.840Z,13.20
2018-04-04T05:29:30.991Z,13.60
2018-04-04T05:31:59.121Z,13.60
2018-04-04T05:34:27.268Z,13.80
2018-04-04T05:36:55.416Z,13.40
2018-04-04T05:39:23.595Z,13.60
2018-04-04T05:41:51.750Z,13.30
2018-04-04T05:44:19.877Z,13.00
2018-04-04T05:46:47.995Z,13.60
2018-04-04T05:49:16.164Z,13.40
2018-04-04T05:51:44.291Z,13.10
2018-04-04T05:54:12.425Z,13.20
2018-04-04T05:56:40.579Z,13.40
2018-04-04T05:59:12.304Z,13.90
2018-04-04T06:01:40.447Z,13.60
2018-04-04T06:04:08.567Z,13.50
2018-04-04T06:06:37.480Z,13.30
2018-04-04T06:09:06.304Z,13.40
2018-04-04T06:11:34.435Z,13.50
2018-04-04T06:14:02.592Z,13.60
2018-04-04T06:16:31.487Z,14.00
2018-04-04T06:19:00.375Z,14.00
2018-04-04T06:21:29.284Z,14.10
2018-04-04T06:23:57.435Z,14.00
2018-04-04T06:26:26.327Z,14.50
2018-04-04T06:28:55.248Z,14.60
2018-04-04T06:31:23.392Z,14.50
2018-04-04T06:33:52.288Z,14.90
2018-04-04T06:36:21.212Z,15.00
2018-04-04T06:38:49.335Z,15.10
2018-04-04T06:41:18.245Z,15.20
2018-04-04T06:43:46.388Z,15.00
2018-04-04T06:46:14.518Z,15.20
2018-04-04T06:48:42.635Z,15.60
2018-04-04T06:51:10.766Z,15.60
2018-04-04T06:53:38.900Z,15.70
2018-04-04T06:56:07.063Z,16.10
2018-04-04T06:58:35.978Z,16.50
2018-04-04T07:01:04.098Z,16.10
2018-04-04T07:03:32.258Z,16.40
2018-04-04T07:06:00.392Z,16.30
2018-04-04T07:08:28.511Z,16.50
2018-04-04T07:10:56.648Z,16.60
2018-04-04T07:13:24.775Z,16.70
2018-04-04T07:15:52.944Z,16.90
2018-04-04T07:18:21.132Z,17.40
2018-04-04T07:20:50.018Z,17.00
2018-04-04T07:23:18.927Z,17.00
2018-04-04T07:25:47.049Z,16.90
2018-04-04T07:28:15.188Z,17.10
2018-04-04T07:30:43.332Z,16.80
2018-04-04T07:33:12.997Z,17.10
2018-04-04T07:35:41.132Z,17.30
2018-04-04T07:38:09.266Z,17.70
2018-04-04T07:40:37.518Z,17.70
2018-04-04T07:43:05.639Z,17.90
2018-04-04T07:45:33.762Z,17.80
2018-04-04T07:48:01.900Z,18.00
2018-04-04T07:50:30.028Z,18.10
2018-04-04T07:52:58.163Z,18.40
2018-04-04T07:55:26.332Z,18.20
2018-04-04T07:57:54.460Z,18.40
2018-04-04T08:00:23.351Z,18.70
2018-04-04T08:02:52.286Z,18.60
2018-04-04T08:05:20.461Z,18.60
2018-04-04T08:07:48.556Z,19.00
2018-04-04T08:10:16.722Z,19.30
2018-04-04T08:12:44.847Z,19.50
2018-04-04T08:15:12.976Z,19.20
2018-04-04T08:17:41.137Z,19.40
2018-04-04T08:20:09.262Z,19.10
2018-04-04T08:22:37.388Z,19.60
2018-04-04T08:25:05.527Z,19.60
2018-04-04T08:27:33.668Z,19.30
2018-04-04T08:30:02.563Z,19.30
2018-04-04T08:32:30.695Z,19.50
2018-04-04T08:34:58.822Z,19.80
2018-04-04T08:37:26.964Z,20.00
2018-04-04T08:39:55.863Z,20.30
2018-04-04T08:42:25.316Z,20.30
2018-04-04T08:44:53.475Z,20.00
2018-04-04T08:47:21.617Z,20.00
2018-04-04T08:49:49.760Z,20.30
2018-04-04T08:52:17.891Z,20.20
2018-04-04T08:54:46.015Z,20.50
2018-04-04T08:57:14.931Z,20.90
2018-04-04T08:59:43.056Z,20.70
2018-04-04T09:02:11.180Z,20.50
2018-04-04T09:04:39.319Z,20.60
2018-04-04T09:07:08.212Z,20.40
2018-04-04T09:09:37.104Z,20.30
2018-04-04T09:12:06.008Z,20.30
2018-04-04T09:14:34.193Z,20.30
2018-04-04T09:17:02.300Z,20.00
2018-04-04T09:19:30.423Z,19.70
2018-04-04T09:21:58.556Z,19.90
2018-04-04T09:24:26.699Z,19.60
2018-04-04T09:26:54.940Z,19.20
2018-04-04T09:29:23.836Z,19.20
2018-04-04T09:31:52.006Z,19.60
2018-04-04T09:34:20.159Z,19.20
2018-04-04T09:36:49.075Z,19.30
2018-04-04T09:39:17.208Z,19.60
2018-04-04T09:41:45.363Z,19.60
2018-04-04T09:44:13.486Z,19.50
2018-04-04T09:46:41.604Z,20.20
2018-04-04T09:49:09.778Z,20.40
2018-04-04T09:51:37.904Z,20.50
2018-04-04T09:54:06.075Z,21.20
2018-04-04T09:56:34.236Z,21.60
2018-04-04T09:59:03.184Z,22.10
2018-04-04T10:01:37.038Z,22.50
2018-04-04T10:04:05.171Z,22.90
2018-04-04T10:06:33.317Z,22.90
2018-04-04T10:09:01.452Z,23.20
2018-04-04T10:11:30.344Z,23.10
2018-04-04T10:13:59.241Z,22.80
2018-04-04T10:16:27.367Z,22.60
2018-04-04T10:18:55.512Z,22.60
2018-04-04T10:21:23.662Z,22.90
2018-04-04T10:23:51.812Z,22.30
2018-04-04T10:26:20.735Z,22.60
2018-04-04T10:28:48.864Z,22.00
2018-04-04T10:31:17.033Z,22.60
2018-04-04T10:33:45.156Z,22.50
2018-04-04T10:36:13.280Z,22.60
2018-04-04T10:38:41.439Z,22.90
2018-04-04T10:41:09.565Z,23.60
2018-04-04T10:43:37.723Z,24.00
2018-04-04T10:46:05.857Z,24.10
2018-04-04T10:48:33.984Z,24.40
2018-04-04T10:51:02.126Z,24.30
2018-04-04T10:53:31.020Z,24.30
2018-04-04T10:55:59.919Z,24.80
2018-04-04T10:58:28.056Z,24.60
2018-04-04T11:00:56.191Z,24.50
2018-04-04T11:03:24.332Z,24.60
2018-04-04T11:05:53.219Z,25.00
2018-04-04T11:08:22.177Z,25.40
2018-04-04T11:10:50.327Z,25.20
2018-04-04T11:13:18.459Z,25.60
2018-04-04T11:15:46.807Z,26.10
2018-04-04T11:18:14.951Z,26.80
2018-04-04T11:20:43.084Z,27.00
2018-04-04T11:23:11.227Z,27.00
2018-04-04T11:25:39.356Z,27.10
2018-04-04T11:28:07.499Z,27.60
2018-04-04T11:30:35.632Z,28.40
2018-04-04T11:33:03.761Z,28.10
2018-04-04T11:35:31.919Z,27.40
2018-04-04T11:38:00.036Z,27.90
2018-04-04T11:40:28.155Z,27.70
2018-04-04T11:42:56.284Z,27.00
2018-04-04T11:45:24.401Z,25.50
2018-04-04T11:47:52.567Z,25.70
2018-04-04T11:50:21.460Z,26.30
2018-04-04T11:52:50.349Z,26.60
2018-04-04T11:55:18.487Z,27.40
2018-04-04T11:57:46.623Z,27.10
2018-04-04T12:00:14.779Z,27.30
2018-04-04T12:02:42.904Z,27.30
2018-04-04T12:05:11.027Z,28.10
2018-04-04T12:07:39.199Z,29.00
2018-04-04T12:10:07.319Z,29.80
2018-04-04T12:12:35.479Z,31.70
2018-04-04T12:15:03.608Z,33.00
2018-04-04T12:17:31.751Z,32.00
2018-04-04T12:20:00.640Z,33.60
2018-04-04T12:22:29.528Z,34.10
2018-04-04T12:24:57.656Z,34.30
2018-04-04T12:27:25.811Z,36.60
2018-04-04T12:29:53.936Z,38.10
2018-04-04T12:32:22.051Z,37.70
2018-04-04T12:34:50.191Z,37.30
2018-04-04T12:37:18.304Z,39.10
2018-04-04T12:39:46.457Z,37.60
2018-04-04T12:42:14.580Z,39.00
2018-04-04T12:44:42.696Z,35.60
2018-04-04T12:47:11.628Z,36.60
2018-04-04T12:49:39.784Z,36.80
2018-04-04T12:52:07.954Z,37.50
2018-04-04T12:54:36.111Z,39.10
2018-04-04T12:57:04.240Z,39.00
2018-04-04T12:59:33.236Z,40.20
2018-04-04T13:02:01.425Z,39.10
2018-04-04T13:04:44.400Z,40.60
2018-04-04T13:07:12.524Z,40.60
2018-04-04T13:09:41.423Z,41.70
2018-04-04T13:12:09.557Z,39.30
2018-04-04T13:14:37.706Z,41.40
2018-04-04T13:17:05.880Z,40.30
2018-04-04T13:19:34.961Z,38.90
2018-04-04T13:22:03.107Z,38.20
2018-04-04T13:24:31.240Z,39.50
2018-04-04T13:26:59.439Z,40.50
2018-04-04T13:29:28.339Z,41.20
2018-04-04T13:31:57.226Z,40.40
2018-04-04T13:34:26.160Z,41.10
2018-04-04T13:36:54.271Z,37.90
2018-04-04T13:39:22.401Z,39.80
2018-04-04T13:41:50.562Z,41.90
2018-04-04T13:44:18.707Z,43.70
2018-04-04T13:46:46.831Z,44.80
2018-04-04T13:49:14.972Z,44.50
2018-04-04T13:51:43.152Z,42.40
2018-04-04T13:54:11.280Z,43.00
2018-04-04T13:56:39.431Z,39.00
2018-04-04T13:59:07.572Z,38.80
2018-04-04T14:01:35.699Z,35.20
2018-04-04T14:04:04.620Z,35.50
2018-04-04T14:06:32.800Z,37.60
2018-04-04T14:09:00.935Z,35.30
2018-04-04T14:11:29.848Z,33.30
2018-04-04T14:13:57.963Z,30.40
2018-04-04T14:16:26.082Z,29.30
2018-04-04T14:18:55.003Z,29.20
2018-04-04T14:21:23.143Z,28.60
2018-04-04T14:23:52.034Z,28.10
2018-04-04T14:26:20.293Z,26.60
2018-04-04T14:28:48.415Z,25.70
2018-04-04T14:31:16.867Z,25.40
2018-04-04T14:33:44.994Z,25.70
2018-04-04T14:36:13.130Z,25.90
2018-04-04T14:38:41.296Z,25.10
2018-04-04T14:41:09.452Z,24.80
2018-04-04T14:43:38.365Z,25.30
2018-04-04T14:46:06.492Z,25.80
2018-04-04T14:48:34.654Z,27.90
2018-04-04T14:51:02.848Z,27.40
2018-04-04T14:53:30.922Z,28.60
2018-04-04T14:55:59.843Z,28.10
2018-04-04T14:58:27.966Z,27.10
2018-04-04T15:00:56.092Z,26.50
2018-04-04T15:03:24.237Z,25.00
2018-04-04T15:05:53.124Z,24.90
2018-04-04T15:08:22.063Z,24.30
2018-04-04T15:10:50.240Z,23.10
2018-04-04T15:13:18.362Z,22.80
2018-04-04T15:15:46.487Z,22.60
2018-04-04T15:18:14.628Z,22.50
2018-04-04T15:20:42.760Z,23.60
2018-04-04T15:23:11.664Z,23.90
2018-04-04T15:25:40.559Z,24.60
2018-04-04T15:28:09.483Z,26.70
2018-04-04T15:30:37.608Z,28.70
2018-04-04T15:33:06.497Z,32.20
2018-04-04T15:35:35.431Z,33.00
2018-04-04T15:38:03.562Z,36.00
2018-04-04T15:40:32.453Z,37.20
2018-04-04T15:43:01.355Z,38.10
2018-04-04T15:45:29.489Z,36.30
2018-04-04T15:47:57.628Z,37.10
2018-04-04T15:50:25.775Z,37.40
2018-04-04T15:52:53.911Z,38.30
2018-04-04T15:55:22.028Z,37.10
2018-04-04T15:57:50.159Z,34.90
2018-04-04T16:00:18.301Z,35.40
2018-04-04T16:02:46.435Z,35.20
2018-04-04T16:05:14.576Z,33.90
2018-04-04T16:07:42.696Z,35.30
2018-04-04T16:10:11.695Z,35.70
2018-04-04T16:12:39.841Z,36.90
2018-04-04T16:15:07.959Z,38.30
2018-04-04T16:17:36.101Z,40.30
2018-04-04T16:20:04.230Z,41.10
2018-04-04T16:22:32.376Z,39.20
2018-04-04T16:25:00.507Z,39.80
2018-04-04T16:27:28.709Z,39.10
2018-04-04T16:29:56.795Z,36.90
2018-04-04T16:32:24.919Z,36.10
2018-04-04T16:34:53.051Z,34.10
2018-04-04T16:37:21.219Z,33.30
2018-04-04T16:39:49.355Z,32.80
2018-04-04T16:42:17.488Z,32.80
2018-04-04T16:44:46.405Z,33.50
2018-04-04T16:47:14.536Z,34.00
2018-04-04T16:49:43.688Z,33.70
2018-04-04T16:52:11.807Z,32.80
2018-04-04T16:54:39.928Z,31.50
2018-04-04T16:57:08.090Z,30.60
2018-04-04T16:59:36.212Z,29.10
2018-04-04T17:02:04.347Z,28.90
2018-04-04T17:04:32.490Z,27.30
2018-04-04T17:07:01.421Z,25.50
2018-04-04T17:09:29.555Z,25.40
2018-04-04T17:11:57.707Z,25.40
2018-04-04T17:14:26.607Z,24.90
2018-04-04T17:16:55.495Z,24.20
2018-04-04T17:19:24.432Z,23.40
2018-04-04T17:21:52.556Z,22.90
2018-04-04T17:24:21.443Z,22.90
2018-04-04T17:26:50.386Z,22.60
2018-04-04T17:29:18.542Z,22.20
2018-04-04T17:31:47.505Z,21.90
2018-04-04T17:34:16.400Z,21.30
2018-04-04T17:36:44.539Z,21.00
2018-04-04T17:39:12.664Z,21.00
2018-04-04T17:41:40.870Z,21.10
2018-04-04T17:44:08.991Z,21.10
2018-04-04T17:46:37.910Z,20.90
2018-04-04T17:49:06.052Z,20.50
2018-04-04T17:51:34.938Z,20.40
2018-04-04T17:54:03.843Z,20.00
2018-04-04T17:56:32.081Z,20.10
2018-04-04T17:59:00.204Z,20.00
2018-04-04T18:01:28.327Z,19.80
2018-04-04T18:03:56.472Z,19.60
2018-04-04T18:06:24.606Z,19.10
2018-04-04T18:08:52.731Z,19.10
2018-04-04T18:11:20.879Z,19.30
2018-04-04T18:13:49.011Z,18.90
2018-04-04T18:16:17.943Z,18.80
2018-04-04T18:18:46.081Z,18.70
2018-04-04T18:21:14.211Z,18.70
2018-04-04T18:23:42.352Z,18.80
2018-04-04T18:26:10.475Z,18.90
2018-04-04T18:28:39.384Z,18.90
2018-04-04T18:31:07.508Z,18.70
2018-04-04T18:33:35.679Z,18.90
2018-04-04T18:36:03.817Z,18.80
2018-04-04T18:38:31.941Z,18.70
2018-04-04T18:41:00.092Z,18.50
2018-04-04T18:43:28.223Z,18.50
2018-04-04T18:45:56.366Z,18.50
2018-04-04T18:48:25.288Z,18.50
2018-04-04T18:50:53.468Z,18.70
2018-04-04T18:53:21.616Z,18.80
2018-04-04T18:55:50.508Z,18.50
2018-04-04T18:58:19.392Z,18.10
2018-04-04T19:00:48.295Z,18.00
2018-04-04T19:03:16.424Z,18.10
2018-04-04T19:05:44.569Z,18.50
2018-04-04T19:08:12.716Z,18.50
2018-04-04T19:10:40.852Z,18.10
2018-04-04T19:13:08.984Z,18.20
2018-04-04T19:15:37.125Z,18.20
2018-04-04T19:18:05.292Z,18.10
2018-04-04T19:20:34.188Z,17.90
2018-04-04T19:23:02.323Z,17.40
2018-04-04T19:25:30.466Z,16.70
2018-04-04T19:27:58.619Z,16.40
2018-04-04T19:30:26.748Z,16.30
2018-04-04T19:32:54.863Z,16.10
2018-04-04T19:35:22.995Z,16.00
2018-04-04T19:37:51.160Z,15.70
2018-04-04T19:40:19.318Z,15.00
2018-04-04T19:42:47.447Z,14.70
2018-04-04T19:45:15.583Z,14.40
2018-04-04T19:47:43.725Z,13.60
2018-04-04T19:50:11.881Z,13.10
2018-04-04T19:52:40.035Z,12.60
2018-04-04T19:55:08.195Z,12.40
2018-04-04T19:57:36.352Z,12.30
2018-04-04T20:00:05.272Z,12.30
2018-04-04T20:02:33.411Z,12.20
2018-04-04T20:05:01.638Z,12.30
2018-04-04T20:07:29.790Z,12.20
2018-04-04T20:09:57.911Z,12.20
2018-04-04T20:12:26.068Z,12.20
2018-04-04T20:14:54.221Z,12.40
2018-04-04T20:17:22.364Z,12.50
2018-04-04T20:19:51.283Z,12.40
2018-04-04T20:22:19.459Z,12.30
2018-04-04T20:24:47.604Z,12.60
2018-04-04T20:27:15.767Z,12.40
2018-04-04T20:29:44.659Z,12.50
2018-04-04T20:32:13.583Z,12.20
2018-04-04T20:34:41.754Z,12.40
2018-04-04T20:37:09.891Z,12.30
2018-04-04T20:39:38.035Z,12.20
2018-04-04T20:42:06.187Z,12.30
2018-04-04T20:44:34.314Z,12.30
2018-04-04T20:47:03.215Z,12.40
2018-04-04T20:49:31.362Z,12.30
2018-04-04T20:52:00.359Z,12.60
2018-04-04T20:54:29.268Z,13.20
2018-04-04T20:56:57.441Z,13.60
2018-04-04T20:59:25.617Z,13.80
2018-04-04T21:01:53.755Z,13.50
2018-04-04T21:04:22.655Z,13.40
2018-04-04T21:06:51.584Z,13.00
2018-04-04T21:09:19.715Z,13.00
2018-04-04T21:11:48.636Z,13.40
2018-04-04T21:14:16.787Z,13.50
2018-04-04T21:16:45.716Z,12.70
2018-04-04T21:19:13.928Z,12.50
2018-04-04T21:21:42.066Z,12.40
2018-04-04T21:24:10.199Z,12.60
2018-04-04T21:26:39.154Z,12.60
2018-04-04T21:29:07.297Z,12.50
2018-04-04T21:31:35.453Z,12.50
2018-04-04T21:34:03.604Z,12.50
2018-04-04T21:36:32.536Z,12.40
2018-04-04T21:39:00.668Z,12.30
2018-04-04T21:41:29.569Z,12.20
2018-04-04T21:43:57.772Z,11.90
2018-04-04T21:46:25.951Z,12.00
2018-04-04T21:48:54.120Z,12.10
2018-04-04T21:51:22.313Z,12.40
2018-04-04T21:53:50.435Z,12.20
2018-04-04T21:56:18.603Z,12.20
2018-04-04T21:58:46.743Z,12.10
2018-04-04T22:01:14.884Z,12.10
2018-04-04T22:03:43.036Z,12.00
2018-04-04T22:06:11.216Z,12.30
2018-04-04T22:08:39.384Z,12.00
2018-04-04T22:11:07.509Z,12.10
2018-04-04T22:13:35.764Z,12.00
2018-04-04T22:16:03.928Z,11.90
2018-04-04T22:18:32.047Z,11.80
2018-04-04T22:21:00.965Z,11.70
2018-04-04T22:23:29.107Z,11.60
2018-04-04T22:25:57.999Z,11.60
2018-04-04T22:28:26.991Z,11.60
2018-04-04T22:30:55.931Z,11.60
2018-04-04T22:33:24.091Z,11.60
2018-04-04T22:35:52.360Z,11.60
2018-04-04T22:38:20.516Z,11.60
2018-04-04T22:40:48.671Z,11.60
2018-04-04T22:43:17.575Z,11.60
2018-04-04T22:45:45.715Z,11.60
2018-04-04T22:48:13.848Z,11.60
2018-04-04T22:50:41.999Z,11.70
2018-04-04T22:53:10.123Z,11.70
2018-04-04T22:55:38.259Z,11.80
2018-04-04T22:58:06.407Z,11.80
2018-04-04T23:00:34.570Z,11.90
2018-04-04T23:03:03.465Z,11.80
2018-04-04T23:05:31.689Z,11.80
2018-04-04T23:08:01.383Z,11.80
2018-04-04T23:10:29.529Z,11.70
2018-04-04T23:12:57.668Z,11.70
2018-04-04T23:15:26.640Z,11.50
2018-04-04T23:17:55.695Z,11.60
2018-04-04T23:20:23.827Z,11.50
2018-04-04T23:22:52.752Z,11.50
2018-04-04T23:25:20.959Z,11.50
2018-04-04T23:27:49.712Z,11.30
2018-04-04T23:30:17.887Z,11.40
2018-04-04T23:32:46.107Z,11.40
2018-04-04T23:35:14.324Z,11.40
2018-04-04T23:37:42.490Z,11.30
2018-04-04T23:40:10.672Z,11.30
2018-04-04T23:42:38.871Z,11.30
2018-04-04T23:45:07.068Z,11.20
2018-04-04T23:47:35.207Z,11.20
2018-04-04T23:50:03.349Z,11.20
2018-04-04T23:52:32.259Z,11.30
2018-04-04T23:55:00.441Z,11.30
2018-04-04T23:57:28.591Z,11.10
2018-04-04T23:59:57.484Z,11.10
